createdAt,value
2017-07-19T00:01:20.623Z,101119.76
2017-07-19T00:03:48.022Z,101124.69
2017-07-19T00:06:15.410Z,101128.37
2017-07-19T00:08:42.880Z,101123.05
2017-07-19T00:11:10.264Z,101124.67
2017-07-19T00:13:37.659Z,101118.40
2017-07-19T00:16:05.059Z,101115.63
2017-07-19T00:18:32.454Z,101118.05
2017-07-19T00:20:59.854Z,101118.38
2017-07-19T00:23:27.258Z,101117.26
2017-07-19T00:25:54.800Z,101118.50
2017-07-19T00:28:22.203Z,101107.17
2017-07-19T00:30:49.767Z,101107.75
2017-07-19T00:33:17.188Z,101093.43
2017-07-19T00:35:44.575Z,101093.42
2017-07-19T00:38:11.967Z,101088.95
2017-07-19T00:40:39.368Z,101086.47
2017-07-19T00:43:06.772Z,101078.80
2017-07-19T00:45:34.169Z,101076.97
2017-07-19T00:48:01.564Z,101079.63
2017-07-19T00:50:28.952Z,101081.44
2017-07-19T00:52:56.370Z,101089.39
2017-07-19T00:55:23.735Z,101082.77
2017-07-19T00:57:51.131Z,101088.27
2017-07-19T01:00:18.523Z,101086.09
2017-07-19T01:02:45.914Z,101090.73
2017-07-19T01:05:13.330Z,101093.63
2017-07-19T01:07:40.723Z,101090.61
2017-07-19T01:10:08.111Z,101088.84
2017-07-19T01:12:35.494Z,101085.58
2017-07-19T01:15:03.110Z,101082.28
2017-07-19T01:17:30.497Z,101083.27
2017-07-19T01:19:57.891Z,101082.69
2017-07-19T01:22:25.277Z,101081.44
2017-07-19T01:24:52.675Z,101076.58
2017-07-19T01:27:20.058Z,101075.45
2017-07-19T01:29:47.491Z,101071.08
2017-07-19T01:32:14.886Z,101075.32
2017-07-19T01:34:42.523Z,101069.67
2017-07-19T01:37:09.914Z,101070.38
2017-07-19T01:39:37.323Z,101062.61
2017-07-19T01:42:04.703Z,101056.20
2017-07-19T01:44:32.095Z,101055.23
2017-07-19T01:46:59.485Z,101053.47
2017-07-19T01:49:26.871Z,101052.12
2017-07-19T01:51:54.260Z,101047.23
2017-07-19T01:54:21.654Z,101043.59
2017-07-19T01:56:49.049Z,101038.09
2017-07-19T01:59:16.431Z,101028.02
2017-07-19T02:01:43.811Z,101029.05
2017-07-19T02:04:11.206Z,101025.58
2017-07-19T02:06:38.615Z,101030.77
2017-07-19T02:09:05.994Z,101037.37
2017-07-19T02:11:33.383Z,101029.00
2017-07-19T02:14:00.775Z,101025.95
2017-07-19T02:16:28.167Z,101029.87
2017-07-19T02:18:55.562Z,101029.23
2017-07-19T02:21:22.948Z,101035.20
2017-07-19T02:23:50.335Z,101026.72
2017-07-19T02:26:17.722Z,101031.02
2017-07-19T02:28:45.111Z,101023.35
2017-07-19T02:31:12.498Z,101018.75
2017-07-19T02:33:39.882Z,101017.83
2017-07-19T02:36:07.280Z,101016.87
2017-07-19T02:38:34.662Z,101014.77
2017-07-19T02:41:02.271Z,101014.59
2017-07-19T02:43:29.672Z,101009.22
2017-07-19T02:45:57.052Z,100997.05
2017-07-19T02:48:24.435Z,100994.27
2017-07-19T02:50:51.833Z,100997.58
2017-07-19T02:53:19.220Z,100998.48
2017-07-19T02:55:46.611Z,100992.36
2017-07-19T02:58:13.994Z,100992.78
2017-07-19T03:00:41.389Z,100992.02
2017-07-19T03:03:08.779Z,100993.52
2017-07-19T03:05:36.162Z,101001.84
2017-07-19T03:08:03.547Z,100997.93
2017-07-19T03:10:30.941Z,100995.33
2017-07-19T03:12:58.326Z,100993.28
2017-07-19T03:15:25.719Z,101001.46
2017-07-19T03:17:53.339Z,101005.69
2017-07-19T03:20:20.737Z,101002.95
2017-07-19T03:22:49.842Z,101009.20
2017-07-19T03:25:17.266Z,101010.63
2017-07-19T03:27:44.659Z,101006.11
2017-07-19T03:30:12.038Z,101005.43
2017-07-19T03:32:39.437Z,101008.02
2017-07-19T03:35:06.824Z,101010.45
2017-07-19T03:37:34.214Z,100996.11
2017-07-19T03:40:01.605Z,101001.81
2017-07-19T03:42:28.996Z,101000.14
2017-07-19T03:44:56.378Z,101002.12
2017-07-19T03:47:23.771Z,100988.61
2017-07-19T03:49:51.166Z,100992.42
2017-07-19T03:52:18.564Z,100982.66
2017-07-19T03:54:45.967Z,100989.10
2017-07-19T03:57:13.351Z,100983.70
2017-07-19T03:59:40.743Z,100978.19
2017-07-19T04:02:08.140Z,100979.59
2017-07-19T04:04:35.517Z,100985.07
2017-07-19T04:07:02.905Z,100977.95
2017-07-19T04:09:30.291Z,100982.88
2017-07-19T04:11:57.683Z,100980.19
2017-07-19T04:14:25.075Z,100979.53
2017-07-19T04:16:52.490Z,100977.61
2017-07-19T04:19:19.884Z,100976.97
2017-07-19T04:21:47.618Z,100974.55
2017-07-19T04:24:15.007Z,100970.11
2017-07-19T04:26:42.694Z,100971.75
2017-07-19T04:29:10.087Z,100974.77
2017-07-19T04:31:37.487Z,100977.23
2017-07-19T04:34:04.874Z,100971.77
2017-07-19T04:36:32.277Z,100973.41
2017-07-19T04:38:59.669Z,100973.95
2017-07-19T04:41:27.087Z,100967.94
2017-07-19T04:43:54.500Z,100971.56
2017-07-19T04:46:21.887Z,100969.70
2017-07-19T04:48:49.323Z,100962.66
2017-07-19T04:51:16.706Z,100949.72
2017-07-19T04:53:44.103Z,100955.08
2017-07-19T04:56:11.513Z,100950.22
2017-07-19T04:58:38.889Z,100953.62
2017-07-19T05:01:06.319Z,100950.59
2017-07-19T05:03:33.740Z,100947.16
2017-07-19T05:06:01.133Z,100946.36
2017-07-19T05:08:28.524Z,100945.17
2017-07-19T05:10:55.907Z,100941.45
2017-07-19T05:13:23.311Z,100935.27
2017-07-19T05:15:50.694Z,100936.42
2017-07-19T05:18:18.094Z,100941.12
2017-07-19T05:20:45.539Z,100933.30
2017-07-19T05:23:12.926Z,100930.56
2017-07-19T05:25:40.311Z,100931.41
2017-07-19T05:28:07.718Z,100934.78
2017-07-19T05:30:35.116Z,100924.52
2017-07-19T05:33:02.509Z,100927.89
2017-07-19T05:35:29.890Z,100930.81
2017-07-19T05:37:57.287Z,100935.13
2017-07-19T05:40:24.683Z,100936.55
2017-07-19T05:42:52.067Z,100937.47
2017-07-19T05:45:19.456Z,100942.88
2017-07-19T05:47:46.850Z,100940.40
2017-07-19T05:50:14.235Z,100939.67
2017-07-19T05:52:41.623Z,100944.19
2017-07-19T05:55:09.015Z,100947.78
2017-07-19T05:57:36.690Z,100945.22
2017-07-19T06:00:04.083Z,100948.52
2017-07-19T06:02:31.472Z,100946.64
2017-07-19T06:04:58.863Z,100945.08
2017-07-19T06:07:26.250Z,100946.78
2017-07-19T06:09:53.646Z,100947.84
2017-07-19T06:12:21.026Z,100943.25
2017-07-19T06:14:48.415Z,100944.41
2017-07-19T06:17:15.809Z,100943.66
2017-07-19T06:19:43.218Z,100939.23
2017-07-19T06:22:10.603Z,100939.16
2017-07-19T06:24:38.022Z,100934.87
2017-07-19T06:27:05.404Z,100934.88
2017-07-19T06:29:32.799Z,100925.20
2017-07-19T06:32:00.185Z,100933.81
2017-07-19T06:34:27.572Z,100920.47
2017-07-19T06:36:54.972Z,100930.01
2017-07-19T06:39:22.362Z,100923.91
2017-07-19T06:41:49.747Z,100919.67
2017-07-19T06:44:17.156Z,100917.03
2017-07-19T06:46:44.551Z,100922.50
2017-07-19T06:49:11.955Z,100915.88
2017-07-19T06:51:39.347Z,100921.50
2017-07-19T06:54:06.734Z,100919.89
2017-07-19T06:56:34.118Z,100914.16
2017-07-19T06:59:01.510Z,100907.09
2017-07-19T07:01:28.896Z,100907.27
2017-07-19T07:03:56.301Z,100912.95
2017-07-19T07:06:23.686Z,100898.11
2017-07-19T07:08:51.088Z,100897.30
2017-07-19T07:11:18.475Z,100890.76
2017-07-19T07:13:45.862Z,100886.00
2017-07-19T07:16:13.280Z,100882.38
2017-07-19T07:18:40.676Z,100872.74
2017-07-19T07:21:08.066Z,100874.59
2017-07-19T07:23:35.448Z,100874.42
2017-07-19T07:26:02.843Z,100867.61
2017-07-19T07:28:30.238Z,100867.27
2017-07-19T07:30:57.626Z,100870.62
2017-07-19T07:33:25.038Z,100874.91
2017-07-19T07:35:52.471Z,100869.02
2017-07-19T07:38:19.847Z,100873.64
2017-07-19T07:40:47.818Z,100876.86
2017-07-19T07:43:15.243Z,100875.55
2017-07-19T07:45:42.638Z,100872.51
2017-07-19T07:48:10.024Z,100866.77
2017-07-19T07:50:37.415Z,100856.47
2017-07-19T07:53:04.802Z,100854.77
2017-07-19T07:55:32.211Z,100860.63
2017-07-19T07:57:59.586Z,100851.41
2017-07-19T08:00:26.979Z,100845.02
2017-07-19T08:02:54.367Z,100839.30
2017-07-19T08:05:21.761Z,100845.19
2017-07-19T08:07:49.137Z,100827.84
2017-07-19T08:10:16.534Z,100828.53
2017-07-19T08:12:43.922Z,100822.91
2017-07-19T08:15:11.315Z,100820.28
2017-07-19T08:17:38.702Z,100817.05
2017-07-19T08:20:06.101Z,100811.30
2017-07-19T08:22:33.478Z,100811.53
2017-07-19T08:25:00.895Z,100815.72
2017-07-19T08:27:28.300Z,100813.53
2017-07-19T08:29:55.698Z,100811.65
2017-07-19T08:32:23.087Z,100815.57
2017-07-19T08:34:50.475Z,100809.55
2017-07-19T08:37:17.862Z,100806.23
2017-07-19T08:39:45.247Z,100804.70
2017-07-19T08:42:12.639Z,100800.37
2017-07-19T08:44:40.023Z,100799.47
2017-07-19T08:47:07.414Z,100800.02
2017-07-19T08:49:34.802Z,100794.18
2017-07-19T08:52:02.194Z,100793.52
2017-07-19T08:54:29.870Z,100785.02
2017-07-19T08:56:57.263Z,100783.06
2017-07-19T08:59:24.658Z,100780.38
2017-07-19T09:01:52.050Z,100779.31
2017-07-19T09:04:19.437Z,100781.59
2017-07-19T09:06:46.827Z,100780.00
2017-07-19T09:09:14.211Z,100781.12
2017-07-19T09:11:41.608Z,100775.53
2017-07-19T09:14:08.996Z,100783.27
2017-07-19T09:16:36.382Z,100778.78
2017-07-19T09:19:03.770Z,100769.98
2017-07-19T09:21:31.174Z,100769.86
2017-07-19T09:23:58.558Z,100766.28
2017-07-19T09:26:25.954Z,100772.69
2017-07-19T09:28:53.343Z,100766.37
2017-07-19T09:31:20.738Z,100749.22
2017-07-19T09:33:48.127Z,100751.82
2017-07-19T09:36:15.527Z,100747.55
2017-07-19T09:38:42.918Z,100752.43
2017-07-19T09:41:10.311Z,100755.27
2017-07-19T09:43:37.710Z,100753.02
2017-07-19T09:46:05.102Z,100746.37
2017-07-19T09:48:32.498Z,100742.29
2017-07-19T09:50:59.890Z,100734.00
2017-07-19T09:53:27.282Z,100734.29
2017-07-19T09:55:54.685Z,100726.27
2017-07-19T09:58:22.310Z,100737.62
2017-07-19T10:00:49.699Z,100739.17
2017-07-19T10:03:17.091Z,100726.25
2017-07-19T10:05:44.479Z,100710.27
2017-07-19T10:08:11.878Z,100709.02
2017-07-19T10:10:39.268Z,100690.87
2017-07-19T10:13:06.654Z,100693.27
2017-07-19T10:15:34.043Z,100687.86
2017-07-19T10:18:01.439Z,100690.08
2017-07-19T10:20:28.849Z,100672.55
2017-07-19T10:22:56.243Z,100674.44
2017-07-19T10:25:23.627Z,100682.17
2017-07-19T10:27:51.030Z,100685.25
2017-07-19T10:30:18.511Z,100689.21
2017-07-19T10:32:45.909Z,100688.47
2017-07-19T10:35:13.331Z,100685.67
2017-07-19T10:37:40.722Z,100685.67
2017-07-19T10:40:08.111Z,100693.48
2017-07-19T10:42:35.507Z,100700.17
2017-07-19T10:45:02.899Z,100698.92
2017-07-19T10:47:30.295Z,100689.11
2017-07-19T10:49:57.694Z,100689.70
2017-07-19T10:52:25.097Z,100680.81
2017-07-19T10:54:52.487Z,100678.42
2017-07-19T10:57:19.876Z,100664.81
2017-07-19T10:59:47.283Z,100654.67
2017-07-19T11:02:14.675Z,100661.80
2017-07-19T11:04:42.305Z,100656.50
2017-07-19T11:07:09.695Z,100668.78
2017-07-19T11:09:37.087Z,100663.64
2017-07-19T11:12:04.466Z,100664.70
2017-07-19T11:14:31.863Z,100658.11
2017-07-19T11:16:59.251Z,100654.25
2017-07-19T11:19:26.642Z,100656.86
2017-07-19T11:21:54.027Z,100650.50
2017-07-19T11:24:21.440Z,100648.94
2017-07-19T11:26:48.814Z,100648.14
2017-07-19T11:29:16.208Z,100647.52
2017-07-19T11:31:43.595Z,100643.23
2017-07-19T11:34:10.987Z,100643.67
2017-07-19T11:36:38.372Z,100638.64
2017-07-19T11:39:05.759Z,100629.69
2017-07-19T11:41:33.151Z,100625.20
2017-07-19T11:44:00.548Z,100641.38
2017-07-19T11:46:27.928Z,100632.98
2017-07-19T11:48:55.322Z,100622.67
2017-07-19T11:51:22.710Z,100623.73
2017-07-19T11:53:50.104Z,100615.81
2017-07-19T11:56:17.487Z,100608.14
2017-07-19T11:58:44.882Z,100607.43
2017-07-19T12:01:12.272Z,100601.16
2017-07-19T12:03:39.660Z,100605.73
2017-07-19T12:06:07.043Z,100600.38
2017-07-19T12:08:34.446Z,100592.61
2017-07-19T12:11:01.834Z,100587.20
2017-07-19T12:13:29.223Z,100579.04
2017-07-19T12:15:56.612Z,100572.61
2017-07-19T12:18:24.013Z,100572.93
2017-07-19T12:20:51.421Z,100579.48
2017-07-19T12:23:18.798Z,100570.55
2017-07-19T12:25:46.186Z,100566.56
2017-07-19T12:28:13.574Z,100560.95
2017-07-19T12:30:40.986Z,100563.13
2017-07-19T12:33:08.389Z,100564.77
2017-07-19T12:35:35.782Z,100565.63
2017-07-19T12:38:03.200Z,100554.95
2017-07-19T12:40:30.598Z,100544.38
2017-07-19T12:42:58.007Z,100547.52
2017-07-19T12:45:25.412Z,100551.44
2017-07-19T12:47:52.812Z,100545.14
2017-07-19T12:50:20.211Z,100548.56
2017-07-19T12:52:47.605Z,100545.16
2017-07-19T12:55:15.001Z,100547.97
2017-07-19T12:57:42.385Z,100545.17
2017-07-19T13:00:09.786Z,100535.29
2017-07-19T13:02:37.411Z,100531.80
2017-07-19T13:05:04.813Z,100539.92
2017-07-19T13:07:32.199Z,100532.76
2017-07-19T13:09:59.608Z,100538.21
2017-07-19T13:12:26.996Z,100527.70
2017-07-19T13:14:54.386Z,100523.94
2017-07-19T13:17:21.784Z,100525.45
2017-07-19T13:19:49.170Z,100518.90
2017-07-19T13:22:17.338Z,100508.22
2017-07-19T13:24:44.780Z,100506.57
2017-07-19T13:27:12.161Z,100509.03
2017-07-19T13:29:39.550Z,100509.17
2017-07-19T13:32:06.942Z,100515.97
2017-07-19T13:34:34.330Z,100514.87
2017-07-19T13:37:01.719Z,100501.18
2017-07-19T13:39:29.109Z,100493.48
2017-07-19T13:41:56.503Z,100491.02
2017-07-19T13:44:23.882Z,100490.61
2017-07-19T13:46:51.274Z,100482.37
2017-07-19T13:49:18.658Z,100480.17
2017-07-19T13:51:46.048Z,100476.50
2017-07-19T13:54:13.447Z,100487.13
2017-07-19T13:56:40.843Z,100477.26
2017-07-19T13:59:08.231Z,100476.49
2017-07-19T14:01:37.939Z,100463.10
2017-07-19T14:04:05.378Z,100457.11
2017-07-19T14:06:32.791Z,100451.14
2017-07-19T14:09:00.167Z,100448.32
2017-07-19T14:11:27.575Z,100442.52
2017-07-19T14:13:54.964Z,100446.02
2017-07-19T14:16:22.363Z,100439.08
2017-07-19T14:18:49.755Z,100424.75
2017-07-19T14:21:17.151Z,100426.84
2017-07-19T14:23:44.555Z,100411.07
2017-07-19T14:26:11.946Z,100413.85
2017-07-19T14:28:39.334Z,100411.19
2017-07-19T14:31:06.955Z,100404.44
2017-07-19T14:33:34.351Z,100405.16
2017-07-19T14:36:01.744Z,100403.13
2017-07-19T14:38:29.127Z,100402.53
2017-07-19T14:40:56.530Z,100405.62
2017-07-19T14:43:23.923Z,100406.19
2017-07-19T14:45:51.303Z,100395.05
2017-07-19T14:48:18.710Z,100389.81
2017-07-19T14:50:46.099Z,100387.05
2017-07-19T14:53:13.511Z,100384.61
2017-07-19T14:55:40.911Z,100389.90
2017-07-19T14:58:08.307Z,100374.00
2017-07-19T15:00:35.702Z,100363.73
2017-07-19T15:03:03.102Z,100356.02
2017-07-19T15:05:30.727Z,100366.63
2017-07-19T15:07:58.158Z,100359.22
2017-07-19T15:10:25.551Z,100366.27
2017-07-19T15:12:52.959Z,100360.93
2017-07-19T15:15:20.355Z,100355.37
2017-07-19T15:17:47.737Z,100352.45
2017-07-19T15:20:15.439Z,100352.35
2017-07-19T15:22:42.826Z,100345.45
2017-07-19T15:25:10.214Z,100348.11
2017-07-19T15:27:37.616Z,100351.25
2017-07-19T15:30:05.022Z,100348.56
2017-07-19T15:32:32.434Z,100334.34
2017-07-19T15:34:59.826Z,100330.20
2017-07-19T15:37:27.224Z,100337.01
2017-07-19T15:39:54.610Z,100343.25
2017-07-19T15:42:21.997Z,100342.54
2017-07-19T15:44:49.402Z,100344.70
2017-07-19T15:47:16.802Z,100348.28
2017-07-19T15:49:44.207Z,100348.62
2017-07-19T15:52:11.815Z,100345.30
2017-07-19T15:54:39.220Z,100334.79
2017-07-19T15:57:06.698Z,100330.70
2017-07-19T15:59:34.076Z,100323.40
2017-07-19T16:02:01.459Z,100328.66
2017-07-19T16:04:29.507Z,100325.71
2017-07-19T16:06:56.897Z,100325.30
2017-07-19T16:09:24.290Z,100317.03
2017-07-19T16:11:51.670Z,100311.91
2017-07-19T16:14:19.073Z,100312.25
2017-07-19T16:16:46.455Z,100308.07
2017-07-19T16:19:13.848Z,100314.07
2017-07-19T16:21:41.242Z,100303.52
2017-07-19T16:24:08.643Z,100298.80
2017-07-19T16:26:36.035Z,100284.95
2017-07-19T16:29:03.423Z,100282.15
2017-07-19T16:31:30.815Z,100284.00
2017-07-19T16:33:58.215Z,100285.77
2017-07-19T16:36:25.612Z,100290.30
2017-07-19T16:38:53.772Z,100299.34
2017-07-19T16:41:21.151Z,100293.64
2017-07-19T16:43:48.616Z,100281.95
2017-07-19T16:46:16.006Z,100272.80
2017-07-19T16:48:43.407Z,100268.73
2017-07-19T16:51:10.800Z,100260.63
2017-07-19T16:53:38.186Z,100258.80
2017-07-19T16:56:05.580Z,100258.95
2017-07-19T16:58:32.977Z,100261.28
2017-07-19T17:01:00.362Z,100259.16
2017-07-19T17:03:27.754Z,100271.10
2017-07-19T17:05:55.145Z,100275.56
2017-07-19T17:08:22.536Z,100274.78
2017-07-19T17:10:49.931Z,100274.25
2017-07-19T17:13:17.327Z,100270.09
2017-07-19T17:15:44.713Z,100269.84
2017-07-19T17:18:12.102Z,100273.23
2017-07-19T17:20:39.499Z,100272.10
2017-07-19T17:23:06.891Z,100272.67
2017-07-19T17:25:34.327Z,100263.16
2017-07-19T17:28:01.715Z,100265.53
2017-07-19T17:30:30.185Z,100259.59
2017-07-19T17:32:57.563Z,100255.20
2017-07-19T17:35:24.969Z,100249.84
2017-07-19T17:37:52.358Z,100241.33
2017-07-19T17:40:19.750Z,100240.69
2017-07-19T17:42:47.153Z,100229.32
2017-07-19T17:45:14.559Z,100224.00
2017-07-19T17:47:41.962Z,100224.06
2017-07-19T17:50:09.788Z,100217.51
2017-07-19T17:52:37.181Z,100217.51
2017-07-19T17:55:04.577Z,100218.94
2017-07-19T17:57:31.960Z,100225.46
2017-07-19T17:59:59.363Z,100225.94
2017-07-19T18:02:26.754Z,100226.70
2017-07-19T18:04:54.146Z,100217.88
2017-07-19T18:07:21.547Z,100217.48
2017-07-19T18:09:48.952Z,100227.34
2017-07-19T18:12:16.334Z,100222.55
2017-07-19T18:14:43.731Z,100253.39
2017-07-19T18:17:11.127Z,100356.38
2017-07-19T18:19:38.547Z,100360.28
2017-07-19T18:24:57.435Z,100405.97
2017-07-19T18:27:25.074Z,100418.00
2017-07-19T18:29:52.497Z,100438.64
2017-07-19T18:32:19.860Z,100452.92
2017-07-19T18:34:47.259Z,100461.13
2017-07-19T18:37:14.897Z,100464.82
2017-07-19T18:39:42.310Z,100471.36
2017-07-19T18:42:09.699Z,100466.45
2017-07-19T18:44:37.135Z,100475.33
2017-07-19T18:47:04.519Z,100461.45
2017-07-19T18:49:31.907Z,100464.55
2017-07-19T18:51:59.306Z,100472.18
2017-07-19T18:54:26.724Z,100469.25
2017-07-19T18:56:54.115Z,100476.78
2017-07-19T18:59:21.515Z,100477.21
2017-07-19T19:01:48.920Z,100479.09
2017-07-19T19:04:16.323Z,100474.92
2017-07-19T19:06:44.686Z,100472.55
2017-07-19T19:09:12.092Z,100472.95
2017-07-19T19:11:39.490Z,100464.18
2017-07-19T19:14:07.095Z,100464.06
2017-07-19T19:16:34.495Z,100458.22
2017-07-19T19:19:01.892Z,100457.68
2017-07-19T19:21:29.318Z,100453.91
2017-07-19T19:23:56.704Z,100452.86
2017-07-19T19:26:24.098Z,100457.05
2017-07-19T19:28:51.495Z,100460.15
2017-07-19T19:31:18.895Z,100465.48
2017-07-19T19:33:46.293Z,100467.27
2017-07-19T19:36:13.690Z,100465.54
2017-07-19T19:38:41.075Z,100467.84
2017-07-19T19:41:08.496Z,100460.67
2017-07-19T19:43:36.108Z,100460.73
2017-07-19T19:46:03.503Z,100458.88
2017-07-19T19:48:30.900Z,100452.38
2017-07-19T19:50:58.307Z,100442.62
2017-07-19T19:53:25.701Z,100442.53
2017-07-19T19:55:53.095Z,100439.75
2017-07-19T19:58:20.491Z,100436.47
2017-07-19T20:00:47.886Z,100435.02
2017-07-19T20:03:15.290Z,100428.78
2017-07-19T20:05:42.676Z,100432.63
2017-07-19T20:08:10.074Z,100440.95
2017-07-19T20:10:37.495Z,100447.03
2017-07-19T20:13:04.891Z,100442.16
2017-07-19T20:15:32.284Z,100449.23
2017-07-19T20:17:59.683Z,100452.62
2017-07-19T20:20:27.079Z,100453.56
2017-07-19T20:22:54.478Z,100453.95
2017-07-19T20:25:21.879Z,100453.27
2017-07-19T20:27:49.313Z,100450.00
2017-07-19T20:30:16.983Z,100459.50
2017-07-19T20:32:44.646Z,100443.81
2017-07-19T20:35:12.034Z,100443.95
2017-07-19T20:37:39.434Z,100444.66
2017-07-19T20:40:06.826Z,100441.39
2017-07-19T20:42:34.222Z,100442.28
2017-07-19T20:45:01.620Z,100451.08
2017-07-19T20:47:29.018Z,100446.36
2017-07-19T20:49:56.402Z,100455.47
2017-07-19T20:52:23.798Z,100446.53
2017-07-19T20:54:51.196Z,100442.87
2017-07-19T20:57:18.604Z,100433.52
2017-07-19T20:59:45.989Z,100428.72
2017-07-19T21:02:13.390Z,100430.37
2017-07-19T21:04:40.903Z,100414.92
2017-07-19T21:07:08.287Z,100421.93
2017-07-19T21:09:35.691Z,100421.41
2017-07-19T21:12:03.094Z,100424.05
2017-07-19T21:14:30.710Z,100432.48
2017-07-19T21:16:58.111Z,100424.91
2017-07-19T21:19:25.806Z,100420.97
2017-07-19T21:21:53.199Z,100407.94
2017-07-19T21:24:20.605Z,100406.73
2017-07-19T21:26:48.285Z,100420.81
2017-07-19T21:29:15.687Z,100419.39
2017-07-19T21:31:43.084Z,100413.56
2017-07-19T21:34:10.750Z,100402.11
2017-07-19T21:36:38.151Z,100395.94
2017-07-19T21:39:05.551Z,100390.50
2017-07-19T21:41:32.950Z,100395.77
2017-07-19T21:44:00.350Z,100401.38
2017-07-19T21:46:27.762Z,100407.91
2017-07-19T21:48:55.147Z,100405.25
2017-07-19T21:51:22.535Z,100412.38
2017-07-19T21:53:49.943Z,100416.07
2017-07-19T21:56:17.340Z,100410.88
2017-07-19T21:58:44.732Z,100408.13
2017-07-19T22:01:12.139Z,100397.58
2017-07-19T22:03:39.544Z,100402.33
2017-07-19T22:06:06.934Z,100393.10
2017-07-19T22:08:34.334Z,100391.27
2017-07-19T22:11:01.727Z,100391.92
2017-07-19T22:13:29.131Z,100398.12
2017-07-19T22:15:56.522Z,100394.34
2017-07-19T22:18:23.925Z,100393.95
2017-07-19T22:20:51.318Z,100378.56
2017-07-19T22:23:18.712Z,100375.23
2017-07-19T22:25:46.102Z,100374.16
2017-07-19T22:28:13.771Z,100377.50
2017-07-19T22:30:41.158Z,100379.63
2017-07-19T22:33:08.563Z,100380.34
2017-07-19T22:35:35.973Z,100382.45
2017-07-19T22:38:03.595Z,100385.86
2017-07-19T22:40:30.994Z,100402.78
2017-07-19T22:42:58.383Z,100397.77
2017-07-19T22:45:25.787Z,100398.66
2017-07-19T22:47:53.183Z,100402.43
2017-07-19T22:50:20.590Z,100405.54
2017-07-19T22:52:47.987Z,100415.43
2017-07-19T22:55:15.387Z,100415.87
2017-07-19T22:57:42.779Z,100426.25
2017-07-19T23:00:10.179Z,100416.66
2017-07-19T23:02:37.872Z,100410.41
2017-07-19T23:05:05.249Z,100417.02
2017-07-19T23:07:32.646Z,100416.44
2017-07-19T23:10:00.039Z,100410.88
2017-07-19T23:12:27.434Z,100407.41
2017-07-19T23:14:54.845Z,100395.02
2017-07-19T23:17:22.227Z,100391.03
2017-07-19T23:19:49.634Z,100398.97
2017-07-19T23:22:17.027Z,100405.31
2017-07-19T23:24:44.430Z,100402.47
2017-07-19T23:27:11.823Z,100397.86
2017-07-19T23:29:39.227Z,100397.94
2017-07-19T23:32:06.625Z,100401.80
2017-07-19T23:34:34.031Z,100403.31
2017-07-19T23:37:01.444Z,100388.18
2017-07-19T23:39:28.888Z,100378.61
2017-07-19T23:41:56.279Z,100373.67
2017-07-19T23:44:23.693Z,100358.52
2017-07-19T23:46:51.095Z,100364.36
2017-07-19T23:49:18.495Z,100359.41
2017-07-19T23:51:45.898Z,100358.75
2017-07-19T23:54:13.299Z,100357.64
2017-07-19T23:56:40.697Z,100367.00
2017-07-19T23:59:08.088Z,100364.09
